N91CH KASE-KSLC
Flight info
| Callsign | N91CH |
|---|---|
| Flight time | N/A |
| Altitude | 43000 |
| Route | LINDZ1 LINDZ RIL HELPR JAZZZ1 |
| Aircraft | HDJT/L-SABDGRWY/H |
Departure
| Time | 2026-05-04 21:46 |
|---|---|
| Airport | Aspen-Pitkin County Airport (Sardy Field) (KASE) |
Arrival
| Time | N/A |
|---|---|
| Airport | Salt Lake City International Airport (KSLC) |
| Time | Latitude | Longitude | Altitude | Speed | Heading |
|---|---|---|---|---|---|
| 2026-05-04 21:29 | 39.22688 | -106.86897 | 7727 ft | 0 kts | 251° |
| 2026-05-04 21:40 | 39.22688 | -106.86899 | 7726 ft | 0 kts | 252° |
| 2026-05-04 21:40 | 39.22687 | -106.86900 | 7726 ft | 1 kts | 252° |
| 2026-05-04 21:40 | 39.22686 | -106.86906 | 7726 ft | 1 kts | 249° |
| 2026-05-04 21:41 | 39.22666 | -106.86926 | 7728 ft | 7 kts | 188° |
| 2026-05-04 21:41 | 39.22607 | -106.86904 | 7731 ft | 11 kts | 160° |
| 2026-05-04 21:41 | 39.22535 | -106.86869 | 7737 ft | 12 kts | 159° |
| 2026-05-04 21:41 | 39.22437 | -106.86822 | 7741 ft | 17 kts | 160° |
| 2026-05-04 21:42 | 39.22320 | -106.86767 | 7748 ft | 19 kts | 159° |
| 2026-05-04 21:42 | 39.22194 | -106.86707 | 7758 ft | 19 kts | 160° |
| 2026-05-04 21:42 | 39.22073 | -106.86649 | 7769 ft | 17 kts | 161° |
| 2026-05-04 21:42 | 39.21961 | -106.86595 | 7781 ft | 17 kts | 159° |
| 2026-05-04 21:43 | 39.21848 | -106.86541 | 7785 ft | 18 kts | 160° |
| 2026-05-04 21:43 | 39.21723 | -106.86482 | 7800 ft | 20 kts | 160° |
| 2026-05-04 21:43 | 39.21592 | -106.86420 | 7811 ft | 21 kts | 159° |
| 2026-05-04 21:43 | 39.21446 | -106.86349 | 7820 ft | 23 kts | 160° |
| 2026-05-04 21:44 | 39.21302 | -106.86281 | 7831 ft | 21 kts | 159° |
| 2026-05-04 21:44 | 39.21220 | -106.86248 | 7835 ft | 6 kts | 183° |
| 2026-05-04 21:44 | 39.21184 | -106.86275 | 7836 ft | 8 kts | 239° |
| 2026-05-04 21:44 | 39.21169 | -106.86340 | 7835 ft | 1 kts | 285° |
| 2026-05-04 21:45 | 39.21173 | -106.86344 | 7835 ft | 1 kts | 356° |
| 2026-05-04 21:45 | 39.21184 | -106.86345 | 7833 ft | 0 kts | 341° |
| 2026-05-04 21:45 | 39.21245 | -106.86374 | 7832 ft | 36 kts | 340° |
| 2026-05-04 21:45 | 39.21709 | -106.86594 | 7800 ft | 105 kts | 340° |
| 2026-05-04 21:46 | 39.22531 | -106.86985 | 8013 ft | 134 kts | 336° |
| 2026-05-04 21:46 | 39.23473 | -106.87348 | 8361 ft | 152 kts | 347° |
| 2026-05-04 21:46 | 39.24615 | -106.87534 | 8779 ft | 178 kts | 353° |
| 2026-05-04 21:46 | 39.25911 | -106.87803 | 8965 ft | 197 kts | 347° |
| 2026-05-04 21:47 | 39.27186 | -106.88690 | 9221 ft | 221 kts | 312° |
| 2026-05-04 21:47 | 39.27956 | -106.90416 | 9732 ft | 221 kts | 286° |
| 2026-05-04 21:47 | 39.28406 | -106.92316 | 10245 ft | 231 kts | 282° |
| 2026-05-04 21:47 | 39.28794 | -106.94369 | 10712 ft | 236 kts | 282° |
| 2026-05-04 21:48 | 39.29165 | -106.96433 | 11404 ft | 236 kts | 282° |
| 2026-05-04 21:48 | 39.29414 | -106.97833 | 11861 ft | 237 kts | 281° |